Time;durP1;ratioP1;P1;durP2;ratioP2;P2;SDS_P1;SDS_P2;PMS_P1;PMS_P2;Temp;Humidity;BMP_temperature;BMP_pressure;BME280_temperature;BME280_humidity;BME280_pressure;Samples;Min_cycle;Max_cycle;Signal;HPM_P1;HPM_P2
2022/12/25 00:01:20;;;;;;;25.77;11.00;;;2.00;99.90;;;;;;5002581;28;20222;-78
2022/12/25 00:03:46;;;;;;;32.60;11.83;;;2.10;99.90;;;;;;5004029;28;20748;-79
2022/12/25 00:06:12;;;;;;;20.70;11.23;;;2.20;99.90;;;;;;5004261;28;20283;-81
2022/12/25 00:08:39;;;;;;;24.60;10.37;;;2.30;99.90;;;;;;5001437;28;20250;-77
2022/12/25 00:11:11;;;;;;;25.73;11.20;;;2.30;99.90;;;;;;5003321;28;20707;-77
2022/12/25 00:13:37;;;;;;;24.87;10.43;;;2.20;99.90;;;;;;5002173;28;20578;-78
2022/12/25 00:16:07;;;;;;;32.67;10.80;;;2.10;99.90;;;;;;5001464;28;20183;-78
2022/12/25 00:18:33;;;;;;;22.30;10.17;;;2.00;99.90;;;;;;5002052;28;20194;-80
2022/12/25 00:21:05;;;;;;;24.33;9.73;;;1.90;99.90;;;;;;5001908;28;20885;-78
2022/12/25 00:23:31;;;;;;;28.23;10.57;;;1.90;99.90;;;;;;5003555;28;20215;-78
2022/12/25 00:25:57;;;;;;;25.00;10.73;;;2.00;99.90;;;;;;5003819;28;20175;-78
2022/12/25 00:28:24;;;;;;;26.77;11.00;;;1.90;99.90;;;;;;5002521;28;20195;-79
2022/12/25 00:30:50;;;;;;;24.03;10.30;;;1.90;99.90;;;;;;5003624;28;20310;-78
2022/12/25 00:33:16;;;;;;;24.83;9.97;;;1.90;99.90;;;;;;5006112;28;20195;-79
2022/12/25 00:35:42;;;;;;;30.60;9.77;;;1.90;99.90;;;;;;5007733;28;20781;-80
2022/12/25 00:38:08;;;;;;;26.97;10.53;;;1.80;99.90;;;;;;5006743;28;21005;-80
2022/12/25 00:40:41;;;;;;;29.50;9.97;;;1.80;99.90;;;;;;5007397;28;21126;-82
2022/12/25 00:43:07;;;;;;;21.17;9.27;;;1.70;99.90;;;;;;5011356;28;20597;-79
2022/12/25 00:45:33;;;;;;;26.77;10.40;;;1.80;99.90;;;;;;5012557;28;20207;-75
2022/12/25 00:47:59;;;;;;;25.47;10.17;;;1.90;99.90;;;;;;5013916;28;20180;-79
2022/12/25 00:50:25;;;;;;;25.77;9.90;;;1.90;99.90;;;;;;5008790;28;20210;-78
2022/12/25 00:52:50;;;;;;;23.90;9.17;;;2.00;99.90;;;;;;5007862;28;20175;-78
2022/12/25 00:55:19;;;;;;;25.07;10.53;;;1.90;99.90;;;;;;5008959;28;20718;-80
2022/12/25 00:57:45;;;;;;;25.37;10.17;;;2.00;99.90;;;;;;5008430;28;20186;-79
2022/12/25 01:00:11;;;;;;;24.70;9.37;;;2.00;99.90;;;;;;5005628;28;20184;-80
2022/12/25 01:02:37;;;;;;;29.73;9.80;;;1.90;99.90;;;;;;5010147;28;20270;-82
2022/12/25 01:05:04;;;;;;;30.00;10.37;;;1.80;99.90;;;;;;5006101;28;20211;-81
2022/12/25 01:07:30;;;;;;;31.67;11.43;;;1.80;99.90;;;;;;5005715;28;20198;-80
2022/12/25 01:12:41;;;;;;;25.73;10.23;;;1.90;99.90;;;;;;5007794;28;20194;-82
2022/12/25 01:15:09;;;;;;;23.30;9.33;;;1.80;99.90;;;;;;5005613;28;20195;-80
2022/12/25 01:17:35;;;;;;;29.20;10.57;;;1.70;99.90;;;;;;5005998;28;20952;-77
2022/12/25 01:20:01;;;;;;;30.67;10.97;;;1.80;99.90;;;;;;5007029;28;20258;-79
2022/12/25 01:22:26;;;;;;;29.93;9.97;;;1.80;99.90;;;;;;5007079;28;20180;-80
2022/12/25 01:24:52;;;;;;;31.50;10.73;;;1.90;99.90;;;;;;5006488;28;20279;-77
2022/12/25 01:27:18;;;;;;;24.00;10.37;;;1.90;99.90;;;;;;5006701;28;20221;-81
2022/12/25 01:29:45;;;;;;;24.47;10.47;;;2.00;99.90;;;;;;5006916;28;20187;-77
2022/12/25 01:32:11;;;;;;;24.77;10.37;;;1.90;99.90;;;;;;5005074;28;21267;-78
2022/12/25 01:34:37;;;;;;;29.53;9.33;;;1.80;99.90;;;;;;5006775;28;20262;-77
2022/12/25 01:37:02;;;;;;;27.60;10.60;;;1.90;99.90;;;;;;5006646;28;20191;-80
2022/12/25 01:39:28;;;;;;;22.70;9.33;;;1.90;99.90;;;;;;5005417;28;20187;-81
2022/12/25 01:41:53;;;;;;;26.37;9.80;;;1.80;99.90;;;;;;5006454;28;20223;-80
2022/12/25 01:44:34;;;;;;;27.20;9.83;;;1.80;99.90;;;;;;5003989;28;20214;-81
2022/12/25 01:47:01;;;;;;;24.07;10.50;;;1.80;99.90;;;;;;5006968;28;20266;-81
2022/12/25 01:49:27;;;;;;;31.87;10.00;;;1.80;99.90;;;;;;5006628;28;20799;-78
2022/12/25 01:52:01;;;;;;;22.20;9.60;;;1.80;99.90;;;;;;5006403;28;20222;-78
2022/12/25 01:54:32;;;;;;;23.90;10.20;;;2.00;99.90;;;;;;5005345;28;20212;-76
2022/12/25 01:57:00;;;;;;;27.90;10.40;;;2.30;99.90;;;;;;5003165;28;20191;-78
2022/12/25 01:59:28;;;;;;;28.80;10.67;;;2.20;99.90;;;;;;5004431;28;20188;-76
2022/12/25 02:01:54;;;;;;;31.13;9.73;;;2.30;99.90;;;;;;5005652;28;20191;-78
2022/12/25 02:04:38;;;;;;;24.97;10.13;;;2.30;99.90;;;;;;5003751;28;20207;-77
2022/12/25 02:07:19;;;;;;;24.63;9.77;;;2.40;99.90;;;;;;5005630;28;20179;-77
2022/12/25 02:09:45;;;;;;;25.57;10.20;;;2.50;99.90;;;;;;5005638;28;20277;-79
2022/12/25 02:12:17;;;;;;;28.87;10.23;;;2.50;99.90;;;;;;5004552;28;20222;-77
2022/12/25 02:14:43;;;;;;;29.83;10.03;;;2.60;99.90;;;;;;5003879;28;20207;-76
2022/12/25 02:17:36;;;;;;;27.50;9.73;;;2.40;99.90;;;;;;5003669;28;20187;-77
2022/12/25 02:20:49;;;;;;;29.47;9.53;;;2.30;99.90;;;;;;5005460;28;20195;-77
2022/12/25 02:23:30;;;;;;;25.20;8.50;;;2.20;99.90;;;;;;4967866;28;20211;-78
2022/12/25 02:26:17;;;;;;;25.90;10.23;;;2.00;99.90;;;;;;5004416;28;20183;-79
2022/12/25 02:29:04;;;;;;;28.30;10.63;;;2.30;99.90;;;;;;5004949;28;20179;-77
2022/12/25 02:31:45;;;;;;;22.83;9.53;;;1.80;99.90;;;;;;5005182;28;20215;-78
2022/12/25 02:34:19;;;;;;;17.90;10.00;;;1.70;99.90;;;;;;5004891;28;20196;-77
2022/12/25 02:37:04;;;;;;;23.10;10.87;;;1.50;99.90;;;;;;5004683;28;20187;-78
2022/12/25 02:42:23;;;;;;;23.07;11.47;;;1.40;99.90;;;;;;5005212;28;20218;-80
2022/12/25 03:07:10;;;;;;;23.67;9.23;;;0.90;99.90;;;;;;5004380;28;20542;-79
2022/12/25 03:12:39;;;;;;;20.97;8.77;;;0.90;99.90;;;;;;5004617;28;20210;-79
2022/12/25 03:17:51;;;;;;;23.57;9.10;;;0.80;99.90;;;;;;5004567;28;20549;-77
2022/12/25 03:28:30;;;;;;;21.83;9.03;;;1.00;99.90;;;;;;5004007;28;20253;-79
2022/12/25 03:31:20;;;;;;;17.43;8.33;;;0.90;99.90;;;;;;5003712;28;20210;-80
2022/12/25 03:37:43;;;;;;;17.03;9.60;;;1.00;99.90;;;;;;5003552;28;20675;-76
2022/12/25 04:38:10;;;;;;;24.23;10.03;;;1.80;99.90;;;;;;5008159;28;20222;-79
2022/12/25 04:40:35;;;;;;;25.67;9.30;;;1.70;99.90;;;;;;5006259;28;20203;-78
2022/12/25 04:43:01;;;;;;;32.40;11.23;;;1.60;99.90;;;;;;5006307;28;20179;-76
2022/12/25 04:45:27;;;;;;;34.60;11.37;;;1.50;99.90;;;;;;5007196;28;20199;-77
2022/12/25 04:47:52;;;;;;;23.03;10.37;;;1.40;99.90;;;;;;5005852;28;20230;-77
2022/12/25 04:50:18;;;;;;;26.40;9.90;;;1.40;99.90;;;;;;5006262;28;20180;-77
2022/12/25 04:52:43;;;;;;;24.90;10.20;;;1.30;99.90;;;;;;5006051;28;20319;-80
2022/12/25 04:55:10;;;;;;;20.80;9.43;;;1.20;99.90;;;;;;5007822;28;20207;-78
2022/12/25 04:57:36;;;;;;;22.63;10.17;;;1.10;99.90;;;;;;5022173;28;20262;-78
2022/12/25 05:00:02;;;;;;;19.40;9.03;;;1.10;99.90;;;;;;5005681;28;20270;-79
2022/12/25 05:02:28;;;;;;;23.90;9.07;;;1.20;99.90;;;;;;5005927;28;20199;-77
2022/12/25 05:04:54;;;;;;;18.47;8.90;;;1.20;99.90;;;;;;5007333;28;20289;-75
2022/12/25 05:07:19;;;;;;;22.63;8.70;;;1.20;99.90;;;;;;5005805;28;20222;-79
2022/12/25 05:09:45;;;;;;;21.80;8.67;;;1.30;99.90;;;;;;5007424;28;21242;-78
2022/12/25 05:12:11;;;;;;;23.70;8.70;;;1.30;99.90;;;;;;5007027;28;20586;-79
2022/12/25 05:14:38;;;;;;;25.87;8.87;;;1.40;99.90;;;;;;5005581;28;20195;-77
2022/12/25 05:17:03;;;;;;;24.33;8.40;;;1.40;99.90;;;;;;5005443;28;20176;-79
2022/12/25 05:19:29;;;;;;;29.67;9.47;;;1.50;99.90;;;;;;5004974;28;20696;-76
2022/12/25 05:21:54;;;;;;;20.50;8.10;;;1.60;99.90;;;;;;5005690;28;20270;-77
2022/12/25 05:24:25;;;;;;;21.37;8.47;;;1.50;99.90;;;;;;5005468;28;20233;-77
2022/12/25 05:26:51;;;;;;;20.60;8.23;;;1.50;99.90;;;;;;5021015;28;20632;-78
2022/12/25 05:29:16;;;;;;;21.03;7.90;;;1.50;99.90;;;;;;5007087;28;20279;-76
2022/12/25 05:31:42;;;;;;;20.37;8.50;;;1.50;99.90;;;;;;5006363;28;20682;-79
2022/12/25 05:34:07;;;;;;;24.57;8.60;;;1.60;99.90;;;;;;5006782;28;20203;-77
2022/12/25 05:36:33;;;;;;;25.23;9.57;;;1.60;99.90;;;;;;5006748;28;20179;-79
2022/12/25 05:38:58;;;;;;;23.93;9.00;;;1.70;99.90;;;;;;5005454;28;20294;-79
2022/12/25 05:41:24;;;;;;;22.47;8.93;;;1.80;99.90;;;;;;5006477;28;20199;-78
2022/12/25 05:43:51;;;;;;;25.63;10.50;;;1.90;99.90;;;;;;5005582;28;20238;-77
2022/12/25 05:46:16;;;;;;;24.63;9.30;;;2.00;99.90;;;;;;5005690;28;20187;-79
2022/12/25 05:48:42;;;;;;;29.23;10.83;;;2.10;99.90;;;;;;5006389;28;20195;-78
2022/12/25 05:51:10;;;;;;;28.80;10.10;;;2.30;99.90;;;;;;5004593;28;20262;-77
2022/12/25 05:53:37;;;;;;;36.00;10.70;;;2.50;99.90;;;;;;5006502;28;20210;-77
2022/12/25 05:56:05;;;;;;;25.70;9.80;;;2.60;99.90;;;;;;5005731;28;20176;-81
2022/12/25 05:58:32;;;;;;;26.43;10.03;;;2.70;99.90;;;;;;5006216;28;21555;-77
2022/12/25 06:00:57;;;;;;;25.20;10.07;;;2.80;99.90;;;;;;5004196;28;20588;-76
2022/12/25 06:03:26;;;;;;;23.27;9.57;;;2.90;99.90;;;;;;5007359;28;20681;-76
2022/12/25 06:05:53;;;;;;;30.37;10.23;;;2.90;99.90;;;;;;5006359;28;20184;-77
2022/12/25 06:08:19;;;;;;;28.23;10.30;;;3.00;99.90;;;;;;5006449;28;20254;-78
2022/12/25 06:10:45;;;;;;;23.50;10.47;;;3.00;99.90;;;;;;5004983;28;20238;-76
2022/12/25 06:13:11;;;;;;;20.00;10.33;;;3.00;99.90;;;;;;5005321;28;20230;-77
2022/12/25 06:15:40;;;;;;;26.13;10.30;;;2.90;99.90;;;;;;5020269;28;20202;-78
2022/12/25 06:18:06;;;;;;;30.83;10.53;;;2.90;99.90;;;;;;5011226;28;20187;-78
2022/12/25 06:20:32;;;;;;;24.20;10.50;;;2.80;99.90;;;;;;5005208;28;20179;-80
2022/12/25 06:22:59;;;;;;;24.60;10.73;;;2.80;99.90;;;;;;5005171;28;20179;-79
2022/12/25 06:25:24;;;;;;;22.90;9.40;;;2.80;99.90;;;;;;5005286;28;20282;-79
2022/12/25 06:27:50;;;;;;;21.43;9.50;;;2.80;99.90;;;;;;5006306;28;20263;-81
2022/12/25 06:30:15;;;;;;;24.23;10.10;;;2.90;99.90;;;;;;5004050;28;20215;-75
2022/12/25 06:32:41;;;;;;;21.73;9.33;;;2.90;99.90;;;;;;5004797;28;20226;-76
2022/12/25 06:35:07;;;;;;;23.87;9.63;;;3.00;99.90;;;;;;5003840;28;21124;-78
2022/12/25 06:37:32;;;;;;;26.67;9.50;;;2.90;99.90;;;;;;5004494;28;20680;-79
2022/12/25 06:39:58;;;;;;;22.47;9.63;;;2.90;99.90;;;;;;5004258;28;20211;-77
2022/12/25 06:42:24;;;;;;;27.73;10.13;;;2.90;99.90;;;;;;5005642;28;20199;-76
2022/12/25 06:44:49;;;;;;;26.83;10.10;;;2.80;99.90;;;;;;5005374;28;20211;-79
2022/12/25 06:47:15;;;;;;;24.50;11.07;;;2.70;99.90;;;;;;5005225;28;20994;-76
2022/12/25 06:49:41;;;;;;;24.13;10.13;;;2.50;99.90;;;;;;5004597;28;20190;-80
2022/12/25 06:52:06;;;;;;;27.00;10.17;;;2.40;99.90;;;;;;5005565;28;20209;-77
2022/12/25 06:54:32;;;;;;;27.40;10.17;;;2.30;99.90;;;;;;5006196;28;20196;-78
2022/12/25 06:56:57;;;;;;;29.73;10.97;;;2.30;99.90;;;;;;5005511;28;20266;-78
2022/12/25 06:59:23;;;;;;;27.70;10.30;;;2.20;99.90;;;;;;5004514;28;20179;-77
2022/12/25 07:01:56;;;;;;;25.43;10.10;;;2.10;99.90;;;;;;5005841;28;20186;-77
2022/12/25 07:04:37;;;;;;;23.97;10.07;;;2.10;99.90;;;;;;5004766;28;20234;-78
2022/12/25 07:07:05;;;;;;;24.47;10.80;;;2.20;99.90;;;;;;5003749;28;20179;-77
2022/12/25 07:09:30;;;;;;;29.30;10.30;;;2.30;99.90;;;;;;5005472;28;21402;-78
2022/12/25 07:12:05;;;;;;;27.77;10.53;;;2.40;99.90;;;;;;5005206;28;20195;-79
2022/12/25 07:14:30;;;;;;;27.43;10.30;;;2.40;99.90;;;;;;5003852;28;20199;-79
2022/12/25 07:16:56;;;;;;;25.50;10.80;;;2.40;99.90;;;;;;5003556;28;20187;-77
2022/12/25 07:19:21;;;;;;;27.60;10.10;;;2.40;99.90;;;;;;5005306;28;20176;-78
2022/12/25 07:21:47;;;;;;;34.77;11.03;;;2.30;99.90;;;;;;5003321;28;20202;-76
2022/12/25 07:24:20;;;;;;;27.33;9.87;;;2.30;99.90;;;;;;5003768;28;20199;-78
2022/12/25 07:26:46;;;;;;;25.63;10.37;;;2.30;99.90;;;;;;5002860;28;20206;-76
2022/12/25 07:29:11;;;;;;;29.57;10.20;;;2.30;99.90;;;;;;5004305;28;20188;-79
2022/12/25 07:31:37;;;;;;;25.70;10.23;;;2.20;99.90;;;;;;5004681;28;20250;-77
2022/12/25 07:34:03;;;;;;;31.63;9.93;;;2.10;99.90;;;;;;5004903;28;20210;-78
2022/12/25 07:36:29;;;;;;;18.00;8.77;;;2.10;99.90;;;;;;5003947;28;20184;-75
2022/12/25 07:38:55;;;;;;;22.63;9.47;;;2.10;99.90;;;;;;5004763;28;20700;-78
2022/12/25 07:41:21;;;;;;;24.20;9.30;;;2.20;99.90;;;;;;5004773;28;20585;-79
2022/12/25 07:43:53;;;;;;;19.80;9.23;;;2.20;99.90;;;;;;5008706;28;20215;-76
2022/12/25 07:46:20;;;;;;;23.20;9.27;;;2.30;99.90;;;;;;5008706;28;20603;-79
2022/12/25 07:48:45;;;;;;;21.33;9.33;;;2.50;99.90;;;;;;5009645;28;20282;-78
2022/12/25 07:51:13;;;;;;;21.80;9.47;;;1.50;99.90;;;;;;5008080;28;20716;-78
2022/12/25 07:53:39;;;;;;;29.40;10.27;;;2.60;99.90;;;;;;5006337;28;20203;-78
2022/12/25 07:56:18;;;;;;;28.23;10.03;;;2.70;99.90;;;;;;5006058;28;20198;-80
2022/12/25 07:58:45;;;;;;;21.57;8.67;;;2.70;99.90;;;;;;5006950;28;20179;-79
2022/12/25 08:01:18;;;;;;;20.23;9.30;;;2.70;99.90;;;;;;5006242;28;20211;-76
2022/12/25 08:03:52;;;;;;;22.33;9.03;;;2.70;99.90;;;;;;5006706;28;20207;-78
2022/12/25 08:06:18;;;;;;;24.43;8.70;;;2.80;99.90;;;;;;5005775;28;20184;-79
2022/12/25 08:08:43;;;;;;;19.60;8.40;;;2.90;99.90;;;;;;5008468;28;20556;-78
2022/12/25 08:11:09;;;;;;;18.70;8.70;;;3.00;99.90;;;;;;5007734;28;20207;-77
2022/12/25 08:13:35;;;;;;;18.10;8.60;;;3.10;99.90;;;;;;5008136;28;20574;-77
2022/12/25 08:16:04;;;;;;;21.37;8.73;;;3.30;99.90;;;;;;5006846;28;20176;-77
2022/12/25 08:18:30;;;;;;;24.37;9.13;;;3.30;99.90;;;;;;5006686;28;20279;-76
2022/12/25 08:21:08;;;;;;;21.20;8.57;;;3.30;99.90;;;;;;5006595;28;20249;-78
2022/12/25 08:23:36;;;;;;;25.30;8.60;;;3.30;99.90;;;;;;5023966;28;20203;-78
2022/12/25 08:26:04;;;;;;;18.17;8.93;;;3.40;99.90;;;;;;5007394;28;20294;-78
2022/12/25 08:28:30;;;;;;;25.80;8.40;;;3.40;99.90;;;;;;5007057;28;20245;-75
2022/12/25 08:30:56;;;;;;;16.47;7.93;;;3.40;99.90;;;;;;5006277;28;20686;-76
2022/12/25 08:33:21;;;;;;;21.90;8.40;;;3.50;99.90;;;;;;5007153;28;20203;-79
2022/12/25 08:35:47;;;;;;;23.73;9.00;;;3.50;99.90;;;;;;5005126;28;20252;-77
2022/12/25 08:38:12;;;;;;;24.63;8.37;;;3.50;99.90;;;;;;5005556;28;20265;-78
2022/12/25 08:40:38;;;;;;;21.03;8.57;;;3.50;99.90;;;;;;5005440;28;20708;-76
2022/12/25 08:43:04;;;;;;;25.53;8.77;;;3.40;99.90;;;;;;5006924;28;20199;-79
2022/12/25 08:45:29;;;;;;;26.27;8.37;;;3.30;99.90;;;;;;5008031;28;20223;-77
2022/12/25 08:47:56;;;;;;;28.97;8.87;;;3.20;99.90;;;;;;5012669;28;20636;-81
2022/12/25 08:50:22;;;;;;;26.77;10.10;;;3.10;99.90;;;;;;5011266;28;20249;-78
2022/12/25 08:52:48;;;;;;;14.80;8.93;;;4.40;99.90;;;;;;5008287;28;20215;-80
2022/12/25 08:55:14;;;;;;;28.73;9.33;;;3.20;99.90;;;;;;5006528;28;20767;-80
2022/12/25 08:57:40;;;;;;;28.13;10.17;;;3.20;99.90;;;;;;5007839;28;20205;-77
2022/12/25 09:00:06;;;;;;;29.37;10.33;;;3.30;99.90;;;;;;5007267;28;20183;-80
2022/12/25 09:02:32;;;;;;;23.57;9.83;;;3.40;99.90;;;;;;5007508;28;20190;-77
2022/12/25 09:04:58;;;;;;;25.17;9.70;;;3.60;99.90;;;;;;5008426;28;20294;-79
2022/12/25 09:07:23;;;;;;;25.13;9.60;;;3.70;99.90;;;;;;5010069;28;20194;-78
2022/12/25 09:09:49;;;;;;;21.27;9.70;;;3.90;99.90;;;;;;5005563;28;20675;-79
2022/12/25 09:12:14;;;;;;;26.03;10.07;;;4.00;99.90;;;;;;5006080;28;20782;-77
2022/12/25 09:14:40;;;;;;;25.63;9.47;;;4.20;99.90;;;;;;5003346;28;20681;-77
2022/12/25 09:17:05;;;;;;;17.57;8.80;;;4.30;99.90;;;;;;5005761;28;20621;-76
2022/12/25 09:19:31;;;;;;;23.43;9.60;;;4.40;99.90;;;;;;5006125;28;20646;-77
2022/12/25 09:21:57;;;;;;;26.17;9.13;;;4.60;99.90;;;;;;5005720;28;20195;-80
2022/12/25 09:24:22;;;;;;;26.70;9.80;;;4.70;99.90;;;;;;5004606;28;20253;-79
2022/12/25 09:26:48;;;;;;;26.40;8.97;;;4.80;99.90;;;;;;5005526;28;20188;-79
2022/12/25 09:29:15;;;;;;;25.70;8.90;;;4.90;99.90;;;;;;5004391;28;20211;-76
2022/12/25 09:31:41;;;;;;;19.40;9.20;;;5.00;99.90;;;;;;5005023;28;20211;-77
2022/12/25 09:34:08;;;;;;;24.83;9.77;;;5.10;99.90;;;;;;5003959;28;20763;-77
2022/12/25 09:36:33;;;;;;;23.80;9.77;;;5.20;99.90;;;;;;5005334;28;20265;-81
2022/12/25 09:38:59;;;;;;;23.63;9.37;;;5.40;99.90;;;;;;5004737;28;20184;-79
2022/12/25 09:41:35;;;;;;;22.87;9.13;;;5.60;99.90;;;;;;5006579;28;20668;-77
2022/12/25 09:44:12;;;;;;;28.73;9.40;;;5.80;99.90;;;;;;5007970;28;20301;-77
2022/12/25 09:46:42;;;;;;;21.63;9.80;;;6.10;99.90;;;;;;5005270;28;20229;-75
2022/12/25 09:49:18;;;;;;;26.33;10.20;;;6.20;99.90;;;;;;5004484;28;20237;-78
2022/12/25 09:51:47;;;;;;;26.93;10.50;;;6.20;99.90;;;;;;5004338;28;20752;-80
2022/12/25 09:54:42;;;;;;;22.47;9.17;;;6.20;99.90;;;;;;5004656;28;20211;-78
2022/12/25 09:57:11;;;;;;;23.53;10.53;;;6.20;99.90;;;;;;4995638;28;20290;-78
2022/12/25 09:59:37;;;;;;;18.17;9.50;;;6.30;99.90;;;;;;5004786;28;20203;-79
2022/12/25 10:02:39;;;;;;;21.40;9.60;;;6.40;99.90;;;;;;5005460;28;20190;-79
2022/12/25 10:05:37;;;;;;;28.73;9.60;;;6.50;99.90;;;;;;5005235;28;20208;-76
2022/12/25 10:08:21;;;;;;;20.17;8.53;;;6.60;99.90;;;;;;5020685;28;20187;-77
2022/12/25 10:10:51;;;;;;;25.93;9.50;;;6.60;99.90;;;;;;5004147;28;20187;-78
2022/12/25 10:13:35;;;;;;;23.00;8.67;;;6.60;99.90;;;;;;5006352;28;20255;-79
2022/12/25 10:16:38;;;;;;;19.70;8.43;;;6.70;99.90;;;;;;5004984;28;20187;-79
2022/12/25 10:19:22;;;;;;;18.57;8.30;;;6.80;99.90;;;;;;5006146;28;20277;-78
2022/12/25 10:21:53;;;;;;;24.80;8.90;;;6.90;99.90;;;;;;5005247;28;20249;-78
2022/12/25 10:24:36;;;;;;;18.00;8.03;;;6.90;99.90;;;;;;5004355;28;20203;-77
2022/12/25 10:27:36;;;;;;;17.97;7.57;;;6.90;99.90;;;;;;5041505;28;21031;-77
2022/12/25 10:30:24;;;;;;;20.10;8.60;;;6.90;99.90;;;;;;5041539;28;20182;-80
2022/12/25 10:32:50;;;;;;;18.87;7.03;;;6.90;99.90;;;;;;5041183;28;20179;-76
2022/12/25 10:35:19;;;;;;;15.90;7.67;;;6.80;99.90;;;;;;5041610;28;20210;-75
2022/12/25 10:37:52;;;;;;;26.00;8.27;;;6.90;99.90;;;;;;5039090;28;20186;-78
2022/12/25 10:40:23;;;;;;;21.93;8.00;;;6.90;99.90;;;;;;5040174;28;20204;-79
2022/12/25 10:42:57;;;;;;;20.80;7.90;;;6.80;99.90;;;;;;5041161;28;20643;-79
2022/12/25 10:45:23;;;;;;;17.10;7.80;;;6.80;99.90;;;;;;5039589;28;20628;-78
2022/12/25 10:47:48;;;;;;;19.50;8.43;;;6.80;99.90;;;;;;5040769;28;20216;-78
2022/12/25 10:50:24;;;;;;;20.77;7.87;;;6.80;99.90;;;;;;5041233;28;20182;-80
2022/12/25 10:53:04;;;;;;;18.90;7.60;;;6.90;99.90;;;;;;5041013;28;20186;-78
2022/12/25 10:55:31;;;;;;;18.83;8.63;;;6.90;99.90;;;;;;5040813;28;20259;-76
2022/12/25 10:57:57;;;;;;;26.80;8.90;;;6.80;99.90;;;;;;5039407;28;20197;-77
2022/12/25 11:00:26;;;;;;;20.33;9.57;;;6.80;99.90;;;;;;5040744;28;20201;-79
2022/12/25 11:02:52;;;;;;;21.20;8.83;;;6.90;99.90;;;;;;5040423;28;20232;-77
2022/12/25 11:05:27;;;;;;;21.53;8.87;;;6.90;99.90;;;;;;5040696;28;20249;-77
2022/12/25 11:07:54;;;;;;;15.03;7.33;;;7.00;99.90;;;;;;5040062;28;20188;-77
2022/12/25 11:10:36;;;;;;;15.00;7.73;;;7.00;99.90;;;;;;5039482;28;20269;-78
2022/12/25 11:13:06;;;;;;;22.10;8.63;;;7.10;99.90;;;;;;5040464;28;20198;-76
2022/12/25 11:15:43;;;;;;;19.30;7.93;;;7.10;99.90;;;;;;5038654;28;20238;-75
2022/12/25 11:18:21;;;;;;;18.90;8.43;;;7.10;99.90;;;;;;5039548;28;20194;-78
2022/12/25 11:20:52;;;;;;;16.20;7.97;;;7.30;99.90;;;;;;5040077;28;20191;-77
2022/12/25 11:23:19;;;;;;;16.97;7.73;;;7.30;99.90;;;;;;5040408;28;20258;-78
2022/12/25 11:26:12;;;;;;;19.03;8.07;;;7.30;99.90;;;;;;5037739;28;20688;-78
2022/12/25 11:28:40;;;;;;;15.50;7.10;;;7.40;99.90;;;;;;5039195;28;20190;-78
2022/12/25 11:31:37;;;;;;;14.67;7.20;;;7.40;99.90;;;;;;5039323;28;20546;-78
2022/12/25 11:34:13;;;;;;;17.80;7.50;;;7.40;99.90;;;;;;5029033;28;20305;-78
2022/12/25 11:36:50;;;;;;;14.00;6.70;;;7.40;99.90;;;;;;5036405;28;20187;-78
2022/12/25 11:39:29;;;;;;;15.40;6.83;;;7.40;99.90;;;;;;5025928;28;20199;-78
2022/12/25 11:42:19;;;;;;;14.03;7.03;;;7.40;99.90;;;;;;5021253;28;20193;-78
2022/12/25 11:45:07;;;;;;;15.13;8.00;;;7.40;99.90;;;;;;5025651;28;20217;-76
2022/12/25 11:47:57;;;;;;;18.60;7.13;;;7.50;99.90;;;;;;5024901;28;20187;-77
2022/12/25 11:50:37;;;;;;;15.07;6.67;;;7.50;99.90;;;;;;5026183;28;20175;-78
2022/12/25 11:53:06;;;;;;;10.90;6.43;;;7.50;99.90;;;;;;5025681;28;20977;-78
2022/12/25 11:55:39;;;;;;;14.70;6.80;;;7.50;99.90;;;;;;5025809;28;20211;-75
2022/12/25 11:58:15;;;;;;;17.07;7.33;;;7.50;99.90;;;;;;5025558;28;20190;-78
2022/12/25 12:00:44;;;;;;;16.30;7.90;;;7.60;99.90;;;;;;5025601;28;20183;-76
2022/12/25 12:03:20;;;;;;;17.60;7.50;;;7.60;99.90;;;;;;5021962;28;20214;-75
2022/12/25 12:06:05;;;;;;;17.90;7.73;;;7.90;99.90;;;;;;5024335;28;20214;-78
2022/12/25 12:08:33;;;;;;;16.17;7.67;;;7.50;99.90;;;;;;5022799;28;21258;-77
2022/12/25 12:11:16;;;;;;;15.77;7.07;;;7.60;99.90;;;;;;5026346;28;20325;-79
2022/12/25 12:14:14;;;;;;;13.53;6.40;;;7.70;99.90;;;;;;5023524;28;20238;-80
2022/12/25 12:16:39;;;;;;;14.07;6.70;;;7.70;99.90;;;;;;5003455;28;20199;-77
2022/12/25 12:19:33;;;;;;;16.87;6.67;;;7.70;99.90;;;;;;5025529;28;20197;-78
2022/12/25 12:22:02;;;;;;;13.83;6.30;;;7.70;99.90;;;;;;5025963;28;20288;-76
2022/12/25 12:24:43;;;;;;;14.27;6.87;;;7.80;99.90;;;;;;5026273;28;20206;-77
2022/12/25 12:27:20;;;;;;;14.33;6.33;;;7.80;99.90;;;;;;5024516;28;20256;-78
2022/12/25 12:29:50;;;;;;;34.57;23.70;;;7.90;99.90;;;;;;5022941;28;20182;-81
2022/12/25 12:32:33;;;;;;;36.27;24.23;;;8.00;99.90;;;;;;5012817;28;20217;-81
2022/12/25 12:35:05;;;;;;;20.60;14.03;;;8.10;43.30;;;;;;5020852;28;20234;-79
2022/12/25 12:37:34;;;;;;;20.63;15.83;;;8.20;1.00;;;;;;5021767;28;20714;-79
2022/12/25 12:40:01;;;;;;;22.47;12.17;;;8.00;1.00;;;;;;5024017;28;20191;-79
2022/12/25 12:42:37;;;;;;;13.13;7.30;;;8.00;1.00;;;;;;5023972;28;20238;-77
2022/12/25 12:45:13;;;;;;;14.63;8.00;;;8.00;1.00;;;;;;5022859;28;20206;-78
2022/12/25 12:47:49;;;;;;;17.37;10.70;;;7.90;1.00;;;;;;5024356;28;20186;-76
2022/12/25 12:50:41;;;;;;;11.30;6.40;;;7.90;1.00;;;;;;5021968;28;20210;-78
2022/12/25 12:53:27;;;;;;;10.57;7.63;;;7.90;23.60;;;;;;5019587;28;20198;-77
2022/12/25 12:55:53;;;;;;;11.17;6.53;;;7.80;14.70;;;;;;5024131;28;20554;-76
2022/12/25 12:58:34;;;;;;;17.03;8.63;;;7.70;1.00;;;;;;5023299;28;20190;-77
2022/12/25 13:01:24;;;;;;;29.07;22.03;;;7.70;26.80;;;;;;5020488;28;20240;-76
2022/12/25 13:04:01;;;;;;;19.60;13.87;;;7.70;64.30;;;;;;5021349;28;20211;-77
2022/12/25 13:06:32;;;;;;;16.03;8.47;;;7.70;53.00;;;;;;5021725;28;20210;-75
2022/12/25 13:09:28;;;;;;;17.53;8.27;;;7.60;56.20;;;;;;5020252;28;20190;-75
2022/12/25 13:11:54;;;;;;;15.77;8.73;;;7.90;96.50;;;;;;5022218;28;21025;-79
2022/12/25 13:14:22;;;;;;;14.57;8.53;;;7.50;99.90;;;;;;5022766;28;20199;-76
2022/12/25 13:16:51;;;;;;;12.47;7.83;;;7.40;99.90;;;;;;5013461;28;20917;-77
2022/12/25 13:19:22;;;;;;;10.47;6.57;;;7.30;99.90;;;;;;5020557;28;20291;-76
2022/12/25 13:21:57;;;;;;;13.63;9.00;;;7.50;99.90;;;;;;5020045;28;20569;-79
2022/12/25 13:24:28;;;;;;;22.03;14.67;;;7.30;99.90;;;;;;5022095;28;20210;-77
2022/12/25 13:26:54;;;;;;;13.63;9.20;;;7.30;99.90;;;;;;5020910;28;20246;-78
2022/12/25 13:29:37;;;;;;;14.53;9.97;;;7.50;99.90;;;;;;5014428;28;20637;-75
2022/12/25 13:32:07;;;;;;;11.67;8.17;;;7.50;99.90;;;;;;5022884;28;20216;-77
2022/12/25 13:34:38;;;;;;;13.23;8.73;;;7.50;99.90;;;;;;5021569;28;20770;-77
2022/12/25 13:37:14;;;;;;;10.27;6.43;;;7.50;99.90;;;;;;5022465;28;20683;-75
2022/12/25 13:39:50;;;;;;;11.70;7.40;;;7.60;99.90;;;;;;5024611;28;20233;-78
2022/12/25 13:42:22;;;;;;;12.77;8.03;;;7.50;94.40;;;;;;5024743;28;20706;-78
2022/12/25 13:44:51;;;;;;;12.67;7.87;;;7.60;97.50;;;;;;5024032;28;20202;-77
2022/12/25 13:47:34;;;;;;;10.73;6.60;;;7.50;92.30;;;;;;5023864;28;20195;-78
2022/12/25 13:50:13;;;;;;;13.43;6.57;;;7.40;99.90;;;;;;5025259;28;20198;-79
2022/12/25 13:52:39;;;;;;;11.10;6.37;;;7.50;99.90;;;;;;5021784;28;20190;-78
2022/12/25 13:55:12;;;;;;;11.87;6.40;;;7.40;99.90;;;;;;5023219;28;20217;-78
2022/12/25 13:57:48;;;;;;;13.93;6.73;;;7.40;99.90;;;;;;5023223;28;20297;-78
2022/12/25 14:00:21;;;;;;;13.97;7.13;;;7.30;99.90;;;;;;5021041;28;20197;-77
2022/12/25 14:02:48;;;;;;;16.50;6.67;;;7.40;99.90;;;;;;5018056;28;20195;-78
2022/12/25 14:05:40;;;;;;;14.33;7.90;;;7.30;99.90;;;;;;5020364;28;20334;-77
2022/12/25 14:08:15;;;;;;;15.50;10.70;;;7.40;99.90;;;;;;5020763;28;20202;-77
2022/12/25 14:10:47;;;;;;;18.17;16.20;;;7.40;99.90;;;;;;5021064;28;20194;-78
2022/12/25 14:13:14;;;;;;;21.93;19.63;;;7.40;99.90;;;;;;5019739;28;20722;-78
2022/12/25 14:15:40;;;;;;;16.17;10.83;;;7.50;99.90;;;;;;5022160;28;20195;-77
2022/12/25 14:18:13;;;;;;;21.07;18.63;;;7.50;99.90;;;;;;5013435;28;20198;-77
2022/12/25 14:20:41;;;;;;;17.23;13.53;;;7.60;99.90;;;;;;5022374;28;20224;-77
2022/12/25 14:23:13;;;;;;;17.30;14.97;;;7.60;99.90;;;;;;5022135;28;20187;-79
2022/12/25 14:25:46;;;;;;;17.10;11.67;;;7.60;99.90;;;;;;5021646;28;20250;-77
2022/12/25 14:28:25;;;;;;;16.37;11.20;;;7.60;99.90;;;;;;5021983;28;20214;-78
2022/12/25 14:30:52;;;;;;;12.57;9.03;;;7.70;99.90;;;;;;5022280;28;20301;-79
2022/12/25 14:33:24;;;;;;;12.90;7.83;;;7.60;99.90;;;;;;5020540;28;20312;-78
2022/12/25 14:35:51;;;;;;;18.17;12.03;;;7.60;99.90;;;;;;5022141;28;20197;-78
2022/12/25 14:38:28;;;;;;;14.50;9.17;;;7.60;99.90;;;;;;5021173;28;20404;-80
2022/12/25 14:41:06;;;;;;;16.63;11.40;;;7.60;99.90;;;;;;5022484;28;20325;-79
2022/12/25 14:43:33;;;;;;;12.57;9.37;;;7.60;99.90;;;;;;5021445;28;20269;-78
2022/12/25 14:46:01;;;;;;;13.43;10.23;;;7.60;99.90;;;;;;5020419;28;20249;-78